Murdochville, Canada
Current Conditions -  °F | °C
As of 1:00 PM on Thursday 30 Oct 2014 (Local Time) from CYGP Reporting Station
Few Clouds Few Clouds  
Wind Chill: 50°   Ceiling: Unl
Heat Index: 50°   Visibility: 15mi
Dew Point: 32°   Wind: 15mph
Humidity: 50%   Direction: 280°W
Pressure: 29.66"   Gusts: 24mph
Location:  48.97°N, 65.52°W
Report Text: CYGP 301700Z 28013G21KT 15SM FEW040 10/00 A2966 RMK SC2 SLP045
Loading
Personal Weather Stations






























Interactive Weather Map
Tropical Storm Tracking
New forecast layout! Learn more

10-Day Weather Forecast

Advertisements
Track Severe Weather on mobile